createdAt,value
2023-05-19T00:00:50.983Z,10.50
2023-05-19T00:05:45.646Z,13.30
2023-05-19T00:10:38.795Z,10.30
2023-05-19T00:15:33.452Z,14.00
2023-05-19T00:20:26.140Z,9.93
2023-05-19T00:25:18.779Z,9.90
2023-05-19T00:30:11.776Z,10.00
2023-05-19T00:35:07.330Z,11.27
2023-05-19T00:40:00.043Z,9.53
2023-05-19T00:44:53.012Z,9.97
2023-05-19T00:49:45.792Z,11.50
2023-05-19T00:54:39.776Z,12.03
2023-05-19T00:59:32.463Z,12.80
2023-05-19T01:04:25.647Z,13.47
2023-05-19T01:09:18.449Z,8.90
2023-05-19T01:14:12.659Z,10.03
2023-05-19T01:19:13.140Z,10.27
2023-05-19T01:24:14.323Z,8.97
2023-05-19T01:29:19.718Z,9.27
2023-05-19T01:34:14.151Z,9.77
2023-05-19T01:39:07.331Z,9.33
2023-05-19T01:44:00.216Z,11.67
2023-05-19T01:48:53.524Z,8.97
2023-05-19T01:53:47.596Z,9.33
2023-05-19T01:58:44.972Z,11.63
2023-05-19T02:03:43.656Z,7.63
2023-05-19T02:08:41.465Z,17.37
2023-05-19T02:13:38.562Z,15.60
2023-05-19T02:18:31.467Z,13.60
2023-05-19T02:23:24.146Z,10.50
2023-05-19T02:28:16.837Z,7.90
2023-05-19T02:33:11.492Z,9.53
2023-05-19T02:38:04.339Z,9.90
2023-05-19T02:42:57.122Z,10.33
2023-05-19T02:47:49.850Z,7.57
2023-05-19T02:52:43.872Z,13.07
2023-05-19T02:57:36.524Z,13.73
2023-05-19T03:02:29.605Z,11.23
2023-05-19T03:07:25.270Z,11.13
2023-05-19T03:12:19.450Z,8.27
2023-05-19T03:17:12.397Z,11.57
2023-05-19T03:22:05.375Z,8.03
2023-05-19T03:26:59.626Z,10.07
2023-05-19T03:31:53.857Z,7.70
2023-05-19T03:36:46.579Z,9.13
2023-05-19T03:41:41.907Z,10.77
2023-05-19T03:46:34.760Z,11.13
2023-05-19T03:52:04.009Z,10.10
2023-05-19T03:57:11.937Z,8.13
2023-05-19T04:02:05.127Z,10.50
2023-05-19T04:06:58.259Z,12.50
2023-05-19T04:11:52.320Z,10.47
2023-05-19T04:16:45.057Z,9.70
2023-05-19T04:21:37.781Z,8.73
2023-05-19T04:26:34.519Z,8.53
2023-05-19T04:31:30.031Z,10.17
2023-05-19T04:36:24.043Z,13.87
2023-05-19T04:41:18.938Z,7.67
2023-05-19T04:46:13.950Z,8.63
2023-05-19T04:51:09.791Z,10.90
2023-05-19T04:56:02.705Z,8.57
2023-05-19T05:00:57.870Z,18.03
2023-05-19T05:05:50.693Z,8.90
2023-05-19T05:10:44.742Z,9.20
2023-05-19T05:15:37.695Z,8.50
2023-05-19T05:20:31.926Z,12.83
2023-05-19T05:25:25.099Z,9.03
2023-05-19T05:30:19.230Z,7.67
2023-05-19T05:35:12.860Z,10.90
2023-05-19T05:40:07.136Z,11.40
2023-05-19T05:45:00.630Z,9.67
2023-05-19T05:49:55.930Z,8.43
2023-05-19T05:54:49.000Z,10.97
2023-05-19T05:59:45.470Z,8.27
2023-05-19T06:04:38.301Z,12.90
2023-05-19T06:09:33.611Z,10.67
2023-05-19T06:14:27.582Z,8.27
2023-05-19T06:19:38.620Z,8.40
2023-05-19T06:24:31.294Z,10.43
2023-05-19T06:29:25.950Z,8.73
2023-05-19T06:34:21.128Z,7.27
2023-05-19T06:39:13.842Z,9.63
2023-05-19T06:44:07.841Z,10.10
2023-05-19T06:49:02.765Z,9.20
2023-05-19T06:54:00.050Z,7.50
2023-05-19T06:58:53.404Z,10.20
2023-05-19T07:03:50.894Z,9.17
2023-05-19T07:08:45.146Z,10.97
2023-05-19T07:13:38.456Z,8.03
2023-05-19T07:18:32.024Z,9.70
2023-05-19T07:23:25.012Z,6.97
2023-05-19T07:28:19.132Z,8.00
2023-05-19T07:33:11.798Z,11.23
2023-05-19T07:38:04.561Z,8.93
2023-05-19T07:42:57.212Z,7.10
2023-05-19T07:47:51.265Z,12.67
2023-05-19T07:52:44.030Z,7.20
2023-05-19T07:57:37.109Z,7.97
2023-05-19T08:02:29.878Z,10.43
2023-05-19T08:07:23.913Z,6.90
2023-05-19T08:12:16.544Z,10.70
2023-05-19T08:17:09.271Z,9.03
2023-05-19T08:22:02.149Z,6.27
2023-05-19T08:26:56.393Z,7.70
2023-05-19T08:31:49.147Z,11.67
2023-05-19T08:36:42.010Z,8.80
2023-05-19T08:41:34.720Z,9.83
2023-05-19T08:46:30.197Z,13.53
2023-05-19T08:51:28.543Z,7.77
2023-05-19T08:56:22.980Z,8.60
2023-05-19T09:01:16.864Z,10.43
2023-05-19T09:06:12.488Z,11.03
2023-05-19T09:11:05.514Z,6.97
2023-05-19T09:15:58.681Z,10.93
2023-05-19T09:20:51.403Z,9.23
2023-05-19T09:25:51.719Z,7.80
2023-05-19T09:30:44.367Z,6.70
2023-05-19T09:35:37.124Z,8.60
2023-05-19T09:40:29.845Z,9.50
2023-05-19T09:45:24.032Z,12.13
2023-05-19T09:50:16.989Z,6.47
2023-05-19T09:55:10.666Z,11.47
2023-05-19T10:00:08.605Z,9.60
2023-05-19T10:05:04.375Z,8.67
2023-05-19T10:09:58.649Z,7.17
2023-05-19T10:14:54.771Z,8.87
2023-05-19T10:19:48.869Z,6.23
2023-05-19T10:24:43.127Z,5.07
2023-05-19T10:29:37.628Z,4.73
2023-05-19T10:34:40.572Z,5.00
2023-05-19T10:39:35.527Z,5.03
2023-05-19T10:44:33.973Z,4.40
2023-05-19T10:49:26.672Z,3.40
2023-05-19T10:54:39.311Z,4.47
2023-05-19T10:59:34.430Z,4.23
2023-05-19T11:04:40.010Z,5.43
2023-05-19T11:09:40.041Z,3.43
2023-05-19T11:14:35.628Z,3.57
2023-05-19T11:19:28.917Z,4.87
2023-05-19T11:24:37.412Z,5.83
2023-05-19T11:29:34.244Z,5.03
2023-05-19T11:34:30.649Z,3.57
2023-05-19T11:39:23.334Z,11.53
2023-05-19T11:44:16.175Z,5.27
2023-05-19T11:49:08.831Z,6.83
2023-05-19T11:54:03.519Z,4.53
2023-05-19T11:58:56.302Z,3.30
2023-05-19T12:03:50.133Z,4.53
2023-05-19T12:08:43.264Z,8.13
2023-05-19T12:13:37.369Z,3.30
2023-05-19T12:18:31.759Z,5.50
2023-05-19T12:23:24.672Z,3.90
2023-05-19T12:28:17.544Z,4.73
2023-05-19T12:33:11.947Z,4.07
2023-05-19T12:38:05.732Z,5.20
2023-05-19T12:42:59.444Z,7.10
2023-05-19T12:47:52.887Z,4.57
2023-05-19T12:52:48.028Z,7.10
2023-05-19T12:57:41.908Z,3.80
2023-05-19T13:02:35.270Z,3.50
2023-05-19T13:07:28.006Z,5.37
2023-05-19T13:12:21.992Z,4.30
2023-05-19T13:17:14.607Z,5.90
2023-05-19T13:22:07.426Z,5.70
2023-05-19T13:27:00.111Z,4.93
2023-05-19T13:31:54.166Z,5.70
2023-05-19T13:36:48.273Z,3.70
2023-05-19T13:41:41.054Z,5.60
2023-05-19T13:46:44.921Z,6.73
2023-05-19T13:51:40.611Z,5.17
2023-05-19T13:56:33.426Z,7.53
2023-05-19T14:01:26.551Z,5.60
2023-05-19T14:06:19.663Z,6.37
2023-05-19T14:11:19.789Z,5.53
2023-05-19T14:16:12.633Z,5.07
2023-05-19T14:21:05.581Z,9.63
2023-05-19T14:25:58.205Z,10.07
2023-05-19T14:30:52.452Z,5.17
2023-05-19T14:35:45.059Z,6.93
2023-05-19T14:40:37.766Z,9.67
2023-05-19T14:45:30.650Z,5.40
2023-05-19T14:50:24.735Z,5.57
2023-05-19T14:55:17.633Z,8.03
2023-05-19T15:00:10.912Z,6.60
2023-05-19T15:05:03.775Z,10.10
2023-05-19T15:09:57.921Z,8.00
2023-05-19T15:14:50.828Z,8.90
2023-05-19T15:19:43.449Z,6.77
2023-05-19T15:24:36.088Z,8.57
2023-05-19T15:29:30.174Z,8.17
2023-05-19T15:34:22.866Z,8.07
2023-05-19T15:39:15.549Z,12.90
2023-05-19T15:44:08.331Z,8.23
2023-05-19T15:49:02.451Z,15.63
2023-05-19T15:53:55.073Z,6.87
2023-05-19T15:58:48.231Z,6.87
2023-05-19T16:03:41.055Z,6.93
2023-05-19T16:08:35.068Z,6.50
2023-05-19T16:13:28.335Z,8.60
2023-05-19T16:18:21.361Z,8.40
2023-05-19T16:23:14.041Z,7.00
2023-05-19T16:28:08.122Z,8.00
2023-05-19T16:33:00.933Z,6.70
2023-05-19T16:37:53.616Z,7.20
2023-05-19T16:42:46.296Z,7.83
2023-05-19T16:47:40.330Z,8.57
2023-05-19T16:52:33.037Z,11.27
2023-05-19T16:57:25.766Z,9.77
2023-05-19T17:02:18.516Z,13.10
2023-05-19T17:07:15.746Z,8.37
2023-05-19T17:12:08.568Z,7.53
2023-05-19T17:17:01.484Z,5.63
2023-05-19T17:21:54.320Z,9.40
2023-05-19T17:26:48.438Z,9.23
2023-05-19T17:31:41.476Z,6.70
2023-05-19T17:36:34.143Z,8.50
2023-05-19T17:41:26.836Z,8.00
2023-05-19T17:46:20.922Z,9.00
2023-05-19T17:51:13.525Z,7.13
2023-05-19T17:56:07.329Z,7.80
2023-05-19T18:01:00.290Z,7.97
2023-05-19T18:05:54.810Z,8.33
2023-05-19T18:10:48.630Z,7.10
2023-05-19T18:15:41.646Z,8.03
2023-05-19T18:20:35.275Z,8.23
2023-05-19T18:25:29.415Z,7.20
2023-05-19T18:30:22.076Z,8.83
2023-05-19T18:35:14.683Z,10.07
2023-05-19T18:40:08.242Z,12.10
2023-05-19T18:45:02.308Z,8.60
2023-05-19T18:49:54.950Z,9.17
2023-05-19T18:54:47.974Z,7.73
2023-05-19T18:59:40.830Z,8.83
2023-05-19T19:04:34.879Z,11.50
2023-05-19T19:09:27.668Z,7.37
2023-05-19T19:14:20.437Z,9.03
2023-05-19T19:19:13.174Z,8.73
2023-05-19T19:24:07.743Z,11.00
2023-05-19T19:29:00.431Z,9.37
2023-05-19T19:33:53.012Z,10.57
2023-05-19T19:38:45.697Z,9.43
2023-05-19T19:43:39.599Z,11.40
2023-05-19T19:48:32.420Z,11.70
2023-05-19T19:53:25.224Z,19.27
2023-05-19T19:58:18.014Z,10.40
2023-05-19T20:03:13.348Z,13.27
2023-05-19T20:08:24.732Z,9.53
2023-05-19T20:13:17.951Z,13.53
2023-05-19T20:18:10.873Z,10.10
2023-05-19T20:23:05.080Z,9.70
2023-05-19T20:27:58.160Z,11.97
2023-05-19T20:32:50.924Z,16.33
2023-05-19T20:37:43.674Z,15.73
2023-05-19T20:42:38.177Z,11.77
2023-05-19T20:47:30.981Z,11.27
2023-05-19T20:52:26.853Z,11.10
2023-05-19T20:57:21.443Z,17.93
2023-05-19T21:02:15.462Z,10.50
2023-05-19T21:07:08.219Z,10.70
2023-05-19T21:12:01.111Z,12.00
2023-05-19T21:16:54.333Z,13.67
2023-05-19T21:21:48.533Z,13.07
2023-05-19T21:26:41.257Z,12.90
2023-05-19T21:31:35.288Z,13.10
2023-05-19T21:36:28.039Z,13.73
2023-05-19T21:41:22.395Z,10.73
2023-05-19T21:46:15.202Z,12.00
2023-05-19T21:51:07.966Z,13.67
2023-05-19T21:56:00.677Z,13.03
2023-05-19T22:00:56.075Z,10.10
2023-05-19T22:05:51.740Z,13.50
2023-05-19T22:10:44.544Z,11.60
2023-05-19T22:15:37.864Z,14.53
2023-05-19T22:20:32.140Z,15.27
2023-05-19T22:25:24.938Z,14.10
2023-05-19T22:30:17.844Z,17.13
2023-05-19T22:35:12.347Z,18.13
2023-05-19T22:40:07.070Z,17.20
2023-05-19T22:44:59.715Z,17.43
2023-05-19T22:49:53.348Z,19.73
2023-05-19T22:54:47.534Z,18.60
2023-05-19T22:59:41.996Z,13.40
2023-05-19T23:04:35.485Z,15.00
2023-05-19T23:09:28.209Z,14.60
2023-05-19T23:14:21.828Z,12.50
2023-05-19T23:19:17.001Z,15.87
2023-05-19T23:24:09.810Z,12.73
2023-05-19T23:29:02.395Z,11.70
2023-05-19T23:33:55.226Z,15.40
2023-05-19T23:38:49.234Z,11.50
2023-05-19T23:43:41.885Z,14.33
2023-05-19T23:48:35.619Z,11.67
2023-05-19T23:53:28.316Z,15.07
2023-05-19T23:58:23.363Z,12.20
